Serra da Mantiqueira, Brazil
Current Conditions -  °F | °C
As of 6:00 AM on Friday 31 Oct 2014 (Local Time) from SBGW Reporting Station
Few Clouds Few Clouds  
Wind Chill: 73°   Ceiling: Unl
Heat Index: 73°   Visibility: 6mi
Dew Point: 61°   Wind: 6mph
Humidity: 65%   Direction: 70°ENE
Pressure: 29.94"   Gusts: NA
Location:  22.43°S, 45.45°W
Report Text: SBGW 310800Z 07005KT 9999 FEW020 23/16 Q1014
Loading
Personal Weather Stations






























Interactive Weather Map
Tropical Storm Tracking
New forecast layout! Learn more

10-Day Weather Forecast

Advertisements
Track Severe Weather on mobile